Huntsville International Carl T Jones Field
KHSV : now visible

Airfield :











YOU CAN JOIN US ON...

 
LOGIN :

Register | Disclaimer

   EN    FR    IT 

 









Legend :    VFR   Marginal VFR   IFR   Intensive IFR   Very Intensive IFR
Visi :
Ceiling :
>= 8 km
>= 3000ft
5 to 8 km
1000 to 3000 ft
1500m to 5 km
500 to 1000 ft
800 to 1500m
200 to 500 ft
< 800m
< 200 ft
Symbols :   Thunderstorms  Fog  Heavy snow  Heavy precipitations  Wind > 20 kt






- Airport Elevation : 629 ft
- IATA code : HSV


KHSV - Huntsville International Carl T Jones Field

CURRENT METAR :
  • 200653Z AUTO 34014G18KT 10SM OVC009 05/04 A3009 RMK AO2 RAE0554 CIG 008V012 PRESRR SLP187 P0000 T00500039 $

EXPIRED METARs :
  • 200559Z 35015G21KT 7SM BKN007 OVC015 08/07 A3004 RMK AO2 RAE54 CIG 005V010 P0000 T00780072 $
  • 200529Z 34016G19KT 3SM -RA BR BKN006 BKN009 OVC018 10/09 A3003 RMK AO2 CIG 003V008 PRESRR P0002 T01000094 $
  • 200501Z 15004KT 10SM -RA FEW006 BKN024 OVC050 12/12 A3000 RMK AO2 P0000 T01170117 $

TAF KHSV
Valid from the 20 at 06:00 until the 21 at 06:00 UTC


200520Z 2006/2106 23010G18KT 6SM -SHRA BR SCT010 OVC020
FM200700 35012G20KT P6SM SCT015 OVC025
FM201400 36014G22KT P6SM SCT030 OVC050
FM202200 01014KT P6SM SCT040 BKN250
KZME FIR / North America



MET'MAP, your aeronautical weather chart ! - Copyright ORBIFLY December 2007 - Disclaimer

ORBIFLY MET'MAP TEAM :

Programming & Development : Alexandra Zaïnal
Concept & original design : Baudouin d'Aumeries
Assistance for programming : Marc-Olivier Méhu
Technical & hardware support : Manuel Goepfert

Contact : metmap@orbifly.com




SOURCES & CREDITS :

   NOAA       Earth
Advisory